Time;durP1;ratioP1;P1;durP2;ratioP2;P2;SDS_P1;SDS_P2;PMS_P1;PMS_P2;Temp;Humidity;BMP_temperature;BMP_pressure;BME280_temperature;BME280_humidity;BME280_pressure;Samples;Min_cycle;Max_cycle;Signal;HPM_P1;HPM_P2
2022/03/06 00:00:55;;;;;;;26.23;16.13;;;1.90;99.90;;;;;;4995099;28;20177;-84
2022/03/06 00:03:21;;;;;;;27.90;17.07;;;1.60;99.90;;;;;;4996284;28;20231;-86
2022/03/06 00:05:46;;;;;;;34.57;20.43;;;1.70;99.90;;;;;;5019963;28;20200;-87
2022/03/06 00:08:12;;;;;;;27.30;17.37;;;1.30;99.90;;;;;;5010999;28;20461;-84
2022/03/06 00:10:38;;;;;;;29.23;18.17;;;1.20;99.90;;;;;;5016563;28;20195;-86
2022/03/06 00:13:04;;;;;;;28.33;17.50;;;0.50;99.90;;;;;;5011306;28;20227;-86
2022/03/06 00:15:30;;;;;;;27.25;18.00;;;2.00;99.90;;;;;;5018387;28;20638;-85
2022/03/06 00:17:59;;;;;;;24.73;16.33;;;1.70;99.90;;;;;;5010645;28;20188;-84
2022/03/06 00:20:25;;;;;;;29.70;16.15;;;1.90;99.90;;;;;;5019616;28;20243;-85
2022/03/06 00:22:51;;;;;;;31.77;18.33;;;1.70;99.90;;;;;;5003604;28;20189;-86
2022/03/06 00:25:17;;;;;;;26.13;16.83;;;;;;;;;;5017807;28;20168;-85
2022/03/06 00:27:43;;;;;;;32.78;18.23;;;1.80;99.90;;;;;;4999477;28;20560;-86
2022/03/06 00:30:09;;;;;;;28.73;17.63;;;0.90;99.90;;;;;;5022116;28;20180;-85
2022/03/06 00:32:35;;;;;;;29.40;19.17;;;2.10;99.90;;;;;;4998191;28;20541;-86
2022/03/06 00:35:00;;;;;;;29.10;19.17;;;1.40;99.90;;;;;;5014986;28;20419;-84
2022/03/06 00:37:26;;;;;;;34.40;18.67;;;;;;;;;;5017124;28;20783;-84
2022/03/06 00:39:52;;;;;;;27.55;18.83;;;1.60;99.90;;;;;;5013517;28;20447;-86
2022/03/06 00:42:18;;;;;;;26.00;17.87;;;3.20;99.90;;;;;;5014420;28;20655;-84
2022/03/06 00:45:06;;;;;;;35.27;17.90;;;4.10;99.90;;;;;;4997889;28;20308;-85
2022/03/06 00:47:32;;;;;;;23.42;16.63;;;2.40;99.90;;;;;;5016754;28;20169;-84
2022/03/06 00:49:59;;;;;;;29.20;17.40;;;;;;;;;;5012590;28;20203;-86
2022/03/06 00:52:25;;;;;;;26.20;16.50;;;1.80;99.90;;;;;;5013851;28;20239;-85
2022/03/06 00:54:51;;;;;;;24.10;17.00;;;0.30;99.90;;;;;;5012280;28;20642;-85
2022/03/06 00:57:16;;;;;;;28.00;16.97;;;1.70;99.90;;;;;;5015276;28;20235;-85
2022/03/06 00:59:42;;;;;;;28.50;16.77;;;;;;;;;;5014395;28;20199;-86
2022/03/06 01:02:08;;;;;;;25.40;16.45;;;1.60;99.90;;;;;;5015897;28;20251;-84
2022/03/06 01:04:34;;;;;;;28.43;17.27;;;3.00;99.90;;;;;;5022622;28;20186;-86
2022/03/06 01:07:01;;;;;;;32.00;19.00;;;2.50;99.90;;;;;;5031977;28;20745;-86
2022/03/06 01:09:27;;;;;;;29.58;19.65;;;3.20;99.90;;;;;;5029172;28;20439;-86
2022/03/06 01:11:53;;;;;;;27.30;18.10;;;3.40;99.90;;;;;;5024861;28;20765;-85
2022/03/06 01:14:19;;;;;;;32.47;19.23;;;3.00;99.90;;;;;;5032351;28;20184;-84
2022/03/06 01:16:44;;;;;;;31.03;18.53;;;1.30;99.90;;;;;;5009709;28;20212;-85
2022/03/06 01:19:11;;;;;;;28.10;17.13;;;;;;;;;;5020477;28;20270;-84
2022/03/06 01:21:37;;;;;;;28.60;16.42;;;1.90;99.90;;;;;;5026779;28;20922;-85
2022/03/06 01:24:03;;;;;;;30.02;19.27;;;1.20;99.90;;;;;;5015560;28;20566;-85
2022/03/06 01:26:28;;;;;;;28.10;18.97;;;1.20;99.90;;;;;;5017436;28;20188;-85
2022/03/06 01:28:54;;;;;;;34.13;19.03;;;1.90;99.90;;;;;;5014911;28;20686;-85
2022/03/06 01:31:20;;;;;;;30.00;18.53;;;1.50;99.90;;;;;;5015761;28;20599;-86
2022/03/06 01:33:46;;;;;;;30.27;18.43;;;;;;;;;;4994108;28;20524;-86
2022/03/06 01:36:12;;;;;;;30.30;17.02;;;1.30;99.90;;;;;;5015617;28;20536;-86
2022/03/06 01:38:37;;;;;;;26.20;16.83;;;1.50;99.90;;;;;;4996434;28;20291;-86
2022/03/06 01:41:03;;;;;;;29.33;18.83;;;1.70;99.90;;;;;;5014253;28;20198;-86
2022/03/06 01:43:29;;;;;;;27.77;16.57;;;3.70;99.90;;;;;;5009833;28;20286;-86
2022/03/06 01:45:55;;;;;;;28.23;18.33;;;;;;;;;;5017012;28;20430;-86
2022/03/06 01:48:21;;;;;;;28.40;17.85;;;1.10;99.90;;;;;;5014538;28;20201;-86
2022/03/06 01:50:47;;;;;;;26.07;17.60;;;2.00;99.90;;;;;;5017282;28;20172;-86
2022/03/06 01:53:12;;;;;;;29.13;18.90;;;1.00;99.90;;;;;;4993563;28;20308;-86
2022/03/06 01:55:39;;;;;;;31.90;19.70;;;0.70;99.90;;;;;;5037726;28;20762;-87
2022/03/06 01:58:08;;;;;;;32.67;19.67;;;0.80;99.90;;;;;;5016103;28;20200;-85
2022/03/06 02:00:37;;;;;;;36.00;20.42;;;0.60;99.90;;;;;;5015394;28;20191;-86
2022/03/06 02:03:03;;;;;;;33.72;19.55;;;0.40;99.90;;;;;;5015325;28;20196;-87
2022/03/06 02:05:29;;;;;;;40.47;20.70;;;0.50;99.90;;;;;;5020018;28;20178;-86
2022/03/06 02:07:55;;;;;;;36.10;19.47;;;1.30;99.90;;;;;;5013790;28;20198;-86
2022/03/06 02:10:21;;;;;;;36.10;19.00;;;2.30;99.90;;;;;;5020050;28;20178;-85
2022/03/06 02:12:47;;;;;;;32.33;20.95;;;2.10;99.90;;;;;;5032195;28;20617;-86
2022/03/06 02:15:15;;;;;;;29.77;18.60;;;0.80;99.90;;;;;;5018277;28;20218;-86
2022/03/06 02:17:41;;;;;;;30.75;19.30;;;1.00;99.90;;;;;;5036289;28;20185;-87
2022/03/06 02:20:15;;;;;;;33.00;19.90;;;0.90;99.90;;;;;;5019333;28;20172;-86
2022/03/06 02:22:47;;;;;;;31.27;21.02;;;0.90;99.90;;;;;;5019459;28;20538;-87
2022/03/06 02:25:22;;;;;;;29.55;16.45;;;2.70;99.90;;;;;;5024390;28;20587;-87
2022/03/06 02:27:57;;;;;;;29.38;17.65;;;0.70;99.90;;;;;;5032437;28;20187;-87
2022/03/06 02:30:27;;;;;;;32.08;19.90;;;3.00;99.90;;;;;;5026928;28;20178;-86
2022/03/06 02:32:54;;;;;;;33.63;19.40;;;0.80;99.90;;;;;;5018755;28;20718;-86
2022/03/06 02:35:39;;;;;;;30.42;18.17;;;2.10;99.90;;;;;;5039455;28;20176;-87
2022/03/06 02:38:05;;;;;;;30.25;19.27;;;0.80;99.90;;;;;;5016387;28;20726;-85
2022/03/06 02:40:37;;;;;;;27.70;18.70;;;-0.20;99.90;;;;;;5024450;28;20179;-86
2022/03/06 02:43:03;;;;;;;33.50;19.38;;;1.10;99.90;;;;;;5036972;28;20187;-86
2022/03/06 02:45:32;;;;;;;31.35;18.85;;;3.20;99.90;;;;;;5022652;28;20175;-86
2022/03/06 02:47:58;;;;;;;32.00;19.83;;;3.70;99.90;;;;;;5035940;28;20545;-86
2022/03/06 02:50:33;;;;;;;34.92;20.73;;;0.00;99.90;;;;;;5038937;28;20255;-84
2022/03/06 02:53:07;;;;;;;35.83;20.33;;;0.00;99.90;;;;;;5034175;28;20648;-85
2022/03/06 02:55:33;;;;;;;34.83;20.90;;;0.40;99.90;;;;;;5023031;28;20178;-85
2022/03/06 02:57:58;;;;;;;31.47;18.90;;;0.00;99.90;;;;;;5034151;28;20192;-85
2022/03/06 03:00:25;;;;;;;36.33;21.23;;;0.60;99.90;;;;;;5039459;28;20338;-85
2022/03/06 03:02:54;;;;;;;35.33;19.30;;;0.40;99.90;;;;;;5018772;28;20643;-83
2022/03/06 03:05:20;;;;;;;33.15;18.52;;;0.40;99.90;;;;;;5022623;28;20161;-85
2022/03/06 03:07:51;;;;;;;30.17;19.53;;;1.60;99.90;;;;;;5017912;28;20190;-86
2022/03/06 03:10:20;;;;;;;34.58;20.08;;;0.50;99.90;;;;;;5055589;22;20855;-88
2022/03/06 03:12:46;;;;;;;33.13;20.08;;;0.00;99.90;;;;;;5023613;28;20746;-89
2022/03/06 03:15:12;;;;;;;34.47;20.27;;;0.50;99.90;;;;;;5024447;28;20224;-88
2022/03/06 03:17:38;;;;;;;38.10;21.15;;;0.40;99.90;;;;;;5045840;28;20504;-88
2022/03/06 03:20:05;;;;;;;27.80;18.25;;;0.40;99.90;;;;;;5066477;28;20209;-87
2022/03/06 03:22:31;;;;;;;31.13;19.23;;;0.50;99.90;;;;;;5052609;28;20216;-87
2022/03/06 03:24:56;;;;;;;33.17;20.50;;;1.80;99.90;;;;;;5037390;28;20214;-88
2022/03/06 03:27:22;;;;;;;36.30;20.50;;;-0.70;99.90;;;;;;5025299;28;20186;-89
2022/03/06 03:29:48;;;;;;;31.20;20.73;;;0.40;99.90;;;;;;5021476;28;20184;-87
2022/03/06 03:32:13;;;;;;;41.43;21.70;;;0.70;99.90;;;;;;5027742;28;20214;-89
2022/03/06 03:34:39;;;;;;;27.73;17.53;;;-0.30;99.90;;;;;;5030633;28;20499;-88
2022/03/06 03:37:04;;;;;;;32.37;19.23;;;0.10;99.90;;;;;;5029667;28;20522;-88
2022/03/06 03:39:30;;;;;;;32.23;18.73;;;0.10;99.90;;;;;;5048161;28;20222;-90
2022/03/06 03:41:56;;;;;;;29.07;18.43;;;2.10;99.90;;;;;;5030870;28;20194;-88
2022/03/06 03:44:21;;;;;;;35.40;19.53;;;0.20;99.90;;;;;;5026177;28;20180;-88
2022/03/06 03:46:47;;;;;;;31.83;19.90;;;;;;;;;;5043456;28;20523;-89
2022/03/06 03:49:17;;;;;;;30.70;17.70;;;0.30;99.90;;;;;;5047075;28;20484;-88
2022/03/06 03:51:43;;;;;;;31.65;19.70;;;0.30;99.90;;;;;;5029290;28;20233;-87
2022/03/06 03:54:09;;;;;;;30.20;18.73;;;-0.80;99.90;;;;;;5030962;28;20222;-87
2022/03/06 03:56:35;;;;;;;33.60;20.77;;;-0.30;99.90;;;;;;5035513;28;20183;-87
2022/03/06 03:59:00;;;;;;;30.93;18.33;;;0.00;99.90;;;;;;5034905;28;20194;-88
2022/03/06 04:01:26;;;;;;;34.30;20.57;;;0.00;99.90;;;;;;5052645;28;20262;-88
2022/03/06 04:03:51;;;;;;;30.93;18.60;;;0.00;99.90;;;;;;5050368;28;20287;-88
2022/03/06 04:06:17;;;;;;;30.07;19.87;;;0.20;99.90;;;;;;5034198;28;20175;-88
2022/03/06 04:08:43;;;;;;;33.67;20.17;;;0.10;99.90;;;;;;5034849;28;20632;-87
2022/03/06 04:11:09;;;;;;;24.60;16.10;;;0.30;99.90;;;;;;5032727;28;20176;-88
2022/03/06 04:13:35;;;;;;;31.40;18.98;;;0.30;99.90;;;;;;5043692;28;20604;-87
2022/03/06 04:16:00;;;;;;;30.70;19.40;;;0.20;99.90;;;;;;5050419;28;20179;-87
2022/03/06 04:18:26;;;;;;;30.20;19.10;;;0.00;99.90;;;;;;5034108;28;20322;-89
2022/03/06 04:20:51;;;;;;;26.90;17.30;;;0.20;99.90;;;;;;5031546;28;20187;-87
2022/03/06 04:23:17;;;;;;;28.93;18.97;;;0.40;99.90;;;;;;5032841;28;20557;-87
2022/03/06 04:25:44;;;;;;;28.87;16.70;;;-0.50;99.90;;;;;;5049381;28;20191;-87
2022/03/06 04:28:10;;;;;;;30.05;18.77;;;0.20;99.90;;;;;;5032545;28;20191;-88
2022/03/06 04:30:36;;;;;;;30.30;17.83;;;0.50;99.90;;;;;;5049249;28;20202;-89
2022/03/06 04:33:03;;;;;;;30.00;18.10;;;0.60;99.90;;;;;;5032636;28;20213;-88
2022/03/06 04:35:31;;;;;;;27.80;18.83;;;0.70;99.90;;;;;;5027616;28;20449;-88
2022/03/06 04:37:57;;;;;;;30.65;18.23;;;0.50;99.90;;;;;;5030805;28;20591;-88
2022/03/06 04:40:22;;;;;;;26.97;17.90;;;0.80;99.90;;;;;;5048943;28;20247;-88
2022/03/06 04:42:48;;;;;;;28.30;17.73;;;0.80;99.90;;;;;;5032470;28;20191;-88
2022/03/06 04:45:14;;;;;;;27.10;18.03;;;0.60;99.90;;;;;;5049283;28;20219;-88
2022/03/06 04:47:39;;;;;;;29.07;16.30;;;0.60;99.90;;;;;;5049732;28;20197;-88
2022/03/06 04:50:05;;;;;;;27.20;15.63;;;0.60;99.90;;;;;;5030184;28;20221;-89
2022/03/06 04:52:31;;;;;;;37.67;19.13;;;0.60;99.90;;;;;;5050966;28;20265;-88
2022/03/06 04:54:56;;;;;;;31.10;18.10;;;0.40;99.90;;;;;;5048554;28;20556;-88
2022/03/06 04:57:22;;;;;;;29.00;18.83;;;0.30;99.90;;;;;;5031942;28;20181;-88
2022/03/06 04:59:48;;;;;;;30.27;18.80;;;0.30;99.90;;;;;;5047919;28;20202;-89
2022/03/06 05:02:13;;;;;;;22.50;17.00;;;0.10;99.90;;;;;;5031294;28;20278;-89
2022/03/06 05:04:39;;;;;;;29.47;18.20;;;0.00;99.90;;;;;;5029427;28;20333;-88
2022/03/06 05:07:04;;;;;;;29.00;18.57;;;-0.10;99.90;;;;;;5030557;28;20305;-89
2022/03/06 05:09:33;;;;;;;26.23;17.30;;;0.30;99.90;;;;;;5029736;28;20660;-89
2022/03/06 05:11:58;;;;;;;28.77;17.60;;;0.30;99.90;;;;;;5031685;28;20354;-88
2022/03/06 05:14:24;;;;;;;21.70;17.30;;;0.50;99.90;;;;;;5030189;28;20424;-87
2022/03/06 05:16:49;;;;;;;26.33;16.87;;;0.20;99.90;;;;;;5030988;28;20775;-87
2022/03/06 05:19:15;;;;;;;29.53;17.40;;;0.30;99.90;;;;;;5047157;28;20674;-87
2022/03/06 05:21:40;;;;;;;25.53;16.20;;;0.20;99.90;;;;;;5066442;28;20159;-87
2022/03/06 05:24:06;;;;;;;26.33;16.60;;;0.20;99.90;;;;;;5051089;28;20207;-88
2022/03/06 05:26:32;;;;;;;26.77;16.50;;;0.00;99.90;;;;;;5032328;28;20233;-87
2022/03/06 05:28:58;;;;;;;28.13;18.60;;;0.20;99.90;;;;;;5047267;28;20678;-88
2022/03/06 05:31:23;;;;;;;29.97;17.30;;;0.20;99.90;;;;;;5030838;28;20178;-87
2022/03/06 05:33:49;;;;;;;30.20;19.10;;;0.10;99.90;;;;;;5046704;28;20807;-87
2022/03/06 05:36:14;;;;;;;27.90;18.63;;;0.10;99.90;;;;;;5047299;28;20566;-88
2022/03/06 05:38:40;;;;;;;30.17;17.50;;;0.10;99.90;;;;;;5028417;28;20193;-88
2022/03/06 05:41:05;;;;;;;30.83;20.30;;;-0.30;99.90;;;;;;5047697;28;20202;-88
2022/03/06 05:43:32;;;;;;;37.40;19.70;;;;;;;;;;5047047;28;20228;-87
2022/03/06 05:46:00;;;;;;;28.45;17.90;;;0.10;99.90;;;;;;5048703;28;20185;-88
2022/03/06 05:48:25;;;;;;;39.08;20.35;;;1.80;99.90;;;;;;5029721;28;20215;-88
2022/03/06 05:50:51;;;;;;;34.73;20.47;;;-0.50;99.90;;;;;;5027889;28;20238;-88
2022/03/06 05:53:16;;;;;;;32.50;19.13;;;0.50;99.90;;;;;;5029597;28;20682;-89
2022/03/06 05:55:43;;;;;;;37.07;20.47;;;0.20;99.90;;;;;;5027759;28;20191;-88
2022/03/06 05:58:08;;;;;;;30.02;18.15;;;2.20;99.90;;;;;;5047634;28;20191;-88
2022/03/06 06:00:34;;;;;;;29.57;18.47;;;-0.20;99.90;;;;;;5028194;28;20277;-88
2022/03/06 06:02:59;;;;;;;36.73;20.97;;;0.40;99.90;;;;;;5047346;28;20195;-88
2022/03/06 06:05:25;;;;;;;32.47;18.93;;;;;;;;;;5046466;28;20718;-88
2022/03/06 06:07:51;;;;;;;35.33;20.40;;;0.20;99.90;;;;;;5046955;28;20191;-88
2022/03/06 06:10:18;;;;;;;31.38;18.90;;;0.40;99.90;;;;;;5009451;28;20220;-88
2022/03/06 06:12:44;;;;;;;28.42;19.00;;;-0.10;99.90;;;;;;5005787;28;20259;-88
2022/03/06 06:15:10;;;;;;;33.80;19.90;;;0.10;99.90;;;;;;4988262;28;20613;-88
2022/03/06 06:17:38;;;;;;;36.75;21.73;;;0.00;99.90;;;;;;5006073;28;20280;-88
2022/03/06 06:20:06;;;;;;;27.35;19.40;;;-1.90;99.90;;;;;;5000121;28;20583;-88
2022/03/06 06:22:32;;;;;;;30.70;20.05;;;0.10;99.90;;;;;;5006213;28;20239;-88
2022/03/06 06:24:58;;;;;;;30.73;20.27;;;-0.70;99.90;;;;;;5004707;28;20192;-88
2022/03/06 06:27:25;;;;;;;26.48;19.30;;;0.20;99.90;;;;;;5002371;28;20657;-88
2022/03/06 06:29:50;;;;;;;33.25;19.95;;;0.10;99.90;;;;;;5005742;28;20565;-88
2022/03/06 06:32:16;;;;;;;29.87;20.30;;;0.20;99.90;;;;;;5005087;28;20587;-88
2022/03/06 06:34:41;;;;;;;32.77;20.60;;;0.20;99.90;;;;;;5004920;28;20197;-88
2022/03/06 06:37:08;;;;;;;35.17;21.90;;;0.30;99.90;;;;;;5004337;28;20491;-88
2022/03/06 06:39:33;;;;;;;27.85;19.52;;;0.20;99.90;;;;;;5006390;28;20239;-87
2022/03/06 06:42:03;;;;;;;31.63;19.77;;;0.20;99.90;;;;;;5006818;28;20188;-88
2022/03/06 06:44:29;;;;;;;32.33;20.95;;;1.90;99.90;;;;;;5007168;28;20215;-86
2022/03/06 06:46:55;;;;;;;34.25;20.35;;;0.40;99.90;;;;;;5010759;28;20190;-88
2022/03/06 06:49:35;;;;;;;28.20;19.20;;;0.60;99.90;;;;;;4998862;28;20203;-88
2022/03/06 06:52:40;;;;;;;35.00;18.83;;;0.60;99.90;;;;;;5002108;28;20227;-88
2022/03/06 06:56:05;;;;;;;26.98;19.08;;;0.60;99.90;;;;;;5006350;28;20196;-88
2022/03/06 06:59:31;;;;;;;30.17;20.38;;;3.00;99.90;;;;;;5009719;28;20297;-88
2022/03/06 07:02:56;;;;;;;33.40;19.38;;;0.40;99.90;;;;;;5007025;28;20296;-88
2022/03/06 07:06:22;;;;;;;29.35;20.13;;;1.10;99.90;;;;;;5009131;28;20195;-88
2022/03/06 07:09:47;;;;;;;24.63;17.90;;;1.30;99.90;;;;;;5017999;28;20219;-88
2022/03/06 07:13:22;;;;;;;29.23;20.00;;;0.90;99.90;;;;;;5048864;28;20214;-89
2022/03/06 07:16:47;;;;;;;28.17;18.88;;;1.60;99.90;;;;;;5049407;28;20241;-87
2022/03/06 07:20:13;;;;;;;22.58;16.58;;;1.60;99.90;;;;;;5050161;28;20279;-88
2022/03/06 07:23:38;;;;;;;28.73;16.73;;;3.80;99.90;;;;;;5047274;28;20199;-87
2022/03/06 07:27:03;;;;;;;26.48;17.60;;;2.80;99.90;;;;;;5052545;28;20206;-88
2022/03/06 07:30:29;;;;;;;33.20;21.80;;;2.80;99.90;;;;;;5061665;28;20297;-88
2022/03/06 07:33:54;;;;;;;32.03;19.60;;;2.90;99.90;;;;;;5053304;28;20215;-88
2022/03/06 07:37:20;;;;;;;27.95;18.55;;;4.40;99.90;;;;;;5061375;28;20183;-88
2022/03/06 07:40:45;;;;;;;24.83;16.97;;;6.70;99.90;;;;;;5053736;28;20183;-88
2022/03/06 07:44:12;;;;;;;23.77;17.50;;;5.90;99.90;;;;;;5050482;28;20424;-88
2022/03/06 07:47:37;;;;;;;21.57;17.13;;;6.60;99.90;;;;;;5049246;28;20442;-88
2022/03/06 07:51:02;;;;;;;21.40;16.70;;;6.00;98.10;;;;;;5049528;28;20432;-86
2022/03/06 07:53:50;;;;;;;23.80;18.87;;;6.80;97.50;;;;;;5043211;28;20445;-88
2022/03/06 07:56:16;;;;;;;21.60;18.20;;;6.80;97.40;;;;;;5033013;28;20961;-87
2022/03/06 07:58:41;;;;;;;26.10;19.40;;;6.70;97.20;;;;;;5032645;28;20573;-87
2022/03/06 08:01:07;;;;;;;21.50;17.33;;;5.80;97.30;;;;;;5033671;28;20219;-88
2022/03/06 08:03:32;;;;;;;24.30;17.90;;;5.70;98.20;;;;;;4701133;28;9999754;-88
2022/03/06 08:05:59;;;;;;;26.30;20.50;;;5.50;97.80;;;;;;5049774;28;20206;-87
2022/03/06 08:08:25;;;;;;;22.87;17.93;;;5.60;98.00;;;;;;5045961;28;20265;-88
2022/03/06 08:10:51;;;;;;;25.90;18.23;;;5.00;97.70;;;;;;5028516;28;20452;-87
2022/03/06 08:13:17;;;;;;;21.00;15.33;;;5.20;98.00;;;;;;5045287;28;20219;-89
2022/03/06 08:15:44;;;;;;;24.73;16.70;;;5.30;98.10;;;;;;5047821;28;20410;-86
2022/03/06 08:18:09;;;;;;;24.80;17.03;;;5.90;98.50;;;;;;5044707;28;20296;-88
2022/03/06 08:20:35;;;;;;;26.07;18.60;;;5.40;98.30;;;;;;5011877;28;20924;-88
2022/03/06 08:23:01;;;;;;;23.97;18.60;;;5.20;98.40;;;;;;5044730;28;20199;-86
2022/03/06 08:25:27;;;;;;;30.27;21.50;;;5.00;98.40;;;;;;5046640;28;21324;-86
2022/03/06 08:27:52;;;;;;;33.20;24.30;;;5.00;98.80;;;;;;5044455;28;20947;-87
2022/03/06 08:30:18;;;;;;;39.20;29.17;;;5.20;99.00;;;;;;5048312;28;20459;-89
2022/03/06 08:32:43;;;;;;;42.00;34.60;;;5.90;98.40;;;;;;5025347;28;20635;-88
2022/03/06 08:35:09;;;;;;;43.30;31.90;;;6.30;96.70;;;;;;5029167;28;20195;-88
2022/03/06 08:37:35;;;;;;;39.23;33.57;;;6.50;96.80;;;;;;5050742;28;20195;-87
2022/03/06 08:40:01;;;;;;;48.17;30.20;;;7.40;96.20;;;;;;5031432;28;20430;-88
2022/03/06 08:42:26;;;;;;;38.87;29.40;;;7.80;94.40;;;;;;5047606;28;20563;-89
2022/03/06 08:44:52;;;;;;;25.77;22.97;;;7.80;93.40;;;;;;5049499;28;20187;-88
2022/03/06 08:47:17;;;;;;;23.43;20.80;;;8.70;93.40;;;;;;5038663;28;20191;-88
2022/03/06 08:49:43;;;;;;;24.67;20.17;;;7.30;93.70;;;;;;5034763;28;20213;-90
2022/03/06 08:52:10;;;;;;;28.07;18.40;;;6.40;93.70;;;;;;5031988;28;20249;-89
2022/03/06 08:54:36;;;;;;;26.87;17.97;;;6.40;94.00;;;;;;5051866;28;20322;-88
2022/03/06 08:57:03;;;;;;;25.57;17.00;;;6.70;94.20;;;;;;5037172;28;20476;-88
2022/03/06 08:59:29;;;;;;;18.53;16.40;;;7.10;94.00;;;;;;5055446;28;20182;-88
2022/03/06 09:01:55;;;;;;;17.87;15.93;;;7.60;93.00;;;;;;5035143;28;20426;-88
2022/03/06 09:04:25;;;;;;;19.43;16.50;;;8.40;91.60;;;;;;5037496;28;20422;-88
2022/03/06 09:06:52;;;;;;;17.77;15.93;;;8.60;88.70;;;;;;5039451;28;20430;-89
2022/03/06 09:09:17;;;;;;;20.73;16.00;;;8.40;89.30;;;;;;5064406;28;20437;-90
2022/03/06 09:11:45;;;;;;;19.43;17.40;;;9.00;90.70;;;;;;5069932;28;20538;-90
2022/03/06 09:14:13;;;;;;;20.27;16.60;;;8.00;87.50;;;;;;5066000;28;20212;-90
2022/03/06 09:17:00;;;;;;;19.10;16.63;;;7.30;85.70;;;;;;5065723;28;20444;-90
2022/03/06 09:19:25;;;;;;;19.07;16.77;;;7.80;88.40;;;;;;5051061;28;20422;-90
2022/03/06 09:21:51;;;;;;;17.53;15.70;;;11.40;90.10;;;;;;5061154;28;20480;-89
2022/03/06 09:24:19;;;;;;;17.83;16.13;;;10.70;87.00;;;;;;5059686;28;20186;-90
2022/03/06 09:26:44;;;;;;;19.53;16.13;;;9.30;83.30;;;;;;5040977;28;20194;-92
2022/03/06 09:29:10;;;;;;;16.77;14.97;;;8.50;82.30;;;;;;5039570;28;20828;-90
2022/03/06 09:31:36;;;;;;;17.47;15.53;;;11.90;86.50;;;;;;5059373;28;20179;-91
2022/03/06 09:34:02;;;;;;;17.87;16.03;;;11.10;83.40;;;;;;5056638;28;20195;-91
2022/03/06 09:37:08;;;;;;;18.37;16.43;;;9.50;78.20;;;;;;5058822;28;20179;-90
2022/03/06 09:40:37;;;;;;;16.00;14.30;;;8.30;68.30;;;;;;5057093;28;20191;-90
2022/03/06 09:44:02;;;;;;;17.73;15.80;;;10.30;62.40;;;;;;5055238;28;20461;-92
2022/03/06 09:47:27;;;;;;;17.87;15.87;;;12.50;64.50;;;;;;5055416;28;20445;-89
2022/03/06 09:50:53;;;;;;;18.33;16.53;;;12.70;58.80;;;;;;5054739;28;20469;-90
2022/03/06 09:54:18;;;;;;;18.60;16.80;;;12.30;57.70;;;;;;5053068;28;21093;-90
2022/03/06 09:57:44;;;;;;;18.53;16.73;;;12.80;54.50;;;;;;5056726;28;20436;-91
2022/03/06 10:01:12;;;;;;;18.60;16.80;;;11.60;51.20;;;;;;5057418;28;20851;-90
2022/03/06 10:04:38;;;;;;;19.27;17.47;;;13.50;50.10;;;;;;5061927;28;20603;-91
2022/03/06 10:08:08;;;;;;;18.20;16.50;;;13.10;45.90;;;;;;5059582;28;20422;-90
2022/03/06 10:11:33;;;;;;;21.30;17.17;;;10.60;44.60;;;;;;5050947;28;20728;-92
2022/03/06 10:15:07;;;;;;;17.73;16.07;;;15.20;48.50;;;;;;5053206;28;20493;-89
2022/03/06 10:18:36;;;;;;;17.67;15.90;;;16.10;49.20;;;;;;5065431;28;20413;-90
2022/03/06 10:21:47;;;;;;;17.63;16.00;;;13.90;44.90;;;;;;5058887;28;20682;-87
2022/03/06 10:25:10;;;;;;;17.00;15.50;;;13.70;43.30;;;;;;5056321;28;20941;-94
2022/03/06 10:28:35;;;;;;;17.73;16.03;;;16.40;44.10;;;;;;5060830;28;20430;-91
2022/03/06 10:32:13;;;;;;;17.47;15.97;;;14.30;41.10;;;;;;5063896;28;20456;-91
2022/03/06 10:35:39;;;;;;;18.40;16.50;;;15.60;40.00;;;;;;5061572;28;20429;-88
2022/03/06 10:39:03;;;;;;;17.60;15.77;;;16.00;39.30;;;;;;5073501;28;20631;-89
2022/03/06 10:42:29;;;;;;;16.87;15.27;;;17.90;39.40;;;;;;5072547;28;20487;-91
2022/03/06 10:46:05;;;;;;;17.73;15.93;;;14.30;38.70;;;;;;5070144;28;20430;-92
2022/03/06 10:49:33;;;;;;;17.70;16.00;;;16.90;38.60;;;;;;5051250;28;20437;-90
2022/03/06 10:53:00;;;;;;;16.70;15.20;;;17.90;39.60;;;;;;5061496;28;20477;-91
2022/03/06 10:56:34;;;;;;;18.52;16.92;;;14.80;34.90;;;;;;5062010;28;20964;-91
2022/03/06 11:00:07;;;;;;;16.17;14.77;;;16.00;37.50;;;;;;5063811;28;20255;-91
2022/03/06 11:05:48;;;;;;;17.00;15.27;;;16.00;35.60;;;;;;4868368;23;10001947;-81
2022/03/06 11:08:16;;;;;;;16.90;15.50;;;17.80;35.60;;;;;;5004875;28;20663;-81
2022/03/06 11:10:42;;;;;;;16.83;15.30;;;17.10;34.20;;;;;;5011123;28;20993;-81
2022/03/06 11:13:13;;;;;;;18.10;16.40;;;18.80;34.50;;;;;;5020493;28;20482;-81
2022/03/06 11:15:39;;;;;;;17.13;15.47;;;16.90;32.70;;;;;;5014227;28;20526;-82
2022/03/06 11:18:06;;;;;;;16.43;14.97;;;17.10;32.70;;;;;;5018762;28;20488;-81
2022/03/06 11:20:33;;;;;;;17.20;15.73;;;16.00;30.80;;;;;;5004969;28;20446;-81
2022/03/06 11:23:24;;;;;;;17.00;15.50;;;15.80;31.70;;;;;;5005984;28;20423;-82
2022/03/06 11:26:09;;;;;;;14.60;13.40;;;15.90;32.60;;;;;;5018258;28;20461;-77
2022/03/06 11:28:56;;;;;;;15.83;14.53;;;15.40;31.80;;;;;;5025486;28;20505;-80
2022/03/06 11:31:22;;;;;;;14.97;13.77;;;16.90;31.50;;;;;;5019882;28;20449;-78
2022/03/06 11:33:57;;;;;;;25.43;14.03;;;16.40;30.90;;;;;;5005148;28;21277;-82
2022/03/06 11:36:25;;;;;;;14.90;13.70;;;16.70;32.40;;;;;;5004437;28;20452;-80
2022/03/06 11:38:52;;;;;;;13.63;12.33;;;14.50;30.80;;;;;;5019223;28;20473;-80
2022/03/06 11:41:19;;;;;;;13.83;12.67;;;13.80;34.10;;;;;;5004932;28;20544;-79
2022/03/06 11:43:50;;;;;;;13.20;12.20;;;13.40;34.80;;;;;;5023894;28;20430;-81
2022/03/06 11:46:21;;;;;;;15.47;14.17;;;11.90;33.80;;;;;;5006868;28;20700;-80
2022/03/06 11:48:46;;;;;;;13.27;12.17;;;12.20;33.30;;;;;;5025104;28;20997;-86
2022/03/06 11:51:38;;;;;;;15.83;14.53;;;13.00;32.70;;;;;;5009367;28;20442;-82
2022/03/06 11:54:14;;;;;;;12.73;11.70;;;13.90;31.70;;;;;;5019119;28;20256;-80
2022/03/06 11:56:42;;;;;;;13.23;12.00;;;13.70;31.90;;;;;;5019543;28;20446;-80
2022/03/06 11:59:10;;;;;;;13.93;12.63;;;13.60;31.40;;;;;;5007496;28;20580;-81
2022/03/06 12:01:36;;;;;;;14.37;13.10;;;14.70;31.20;;;;;;5023882;28;20434;-80
2022/03/06 12:04:11;;;;;;;13.80;12.67;;;15.30;32.10;;;;;;5021623;28;20811;-79
2022/03/06 12:06:45;;;;;;;15.33;14.03;;;12.90;31.10;;;;;;5020045;28;20226;-81
2022/03/06 12:09:25;;;;;;;20.07;17.60;;;13.40;31.70;;;;;;5016519;28;20515;-80
2022/03/06 12:11:53;;;;;;;17.00;13.10;;;13.60;31.90;;;;;;5015650;28;20489;-79
2022/03/06 12:14:20;;;;;;;15.80;14.30;;;14.00;32.20;;;;;;5022790;28;20446;-80
2022/03/06 12:17:05;;;;;;;13.50;12.40;;;15.30;31.60;;;;;;5005590;28;20442;-80
2022/03/06 12:19:54;;;;;;;14.57;13.37;;;16.60;31.70;;;;;;5025972;28;20518;-79
2022/03/06 12:22:28;;;;;;;15.83;14.13;;;15.90;30.20;;;;;;5006911;28;20435;-81
2022/03/06 12:25:06;;;;;;;15.23;14.00;;;14.70;30.20;;;;;;5005118;28;20554;-81
2022/03/06 12:27:34;;;;;;;14.70;13.50;;;13.30;31.10;;;;;;5006487;28;20961;-82
2022/03/06 12:30:03;;;;;;;18.83;17.10;;;12.40;31.80;;;;;;5007860;28;20451;-80
2022/03/06 12:32:36;;;;;;;17.63;16.03;;;12.90;32.70;;;;;;5027951;28;20476;-82
2022/03/06 12:35:06;;;;;;;17.63;15.80;;;13.40;32.90;;;;;;5023231;28;20525;-84
2022/03/06 12:37:34;;;;;;;15.70;14.03;;;13.10;32.00;;;;;;5027562;28;20411;-84
2022/03/06 12:40:02;;;;;;;18.53;14.67;;;13.70;32.80;;;;;;5025408;28;20438;-83
2022/03/06 12:42:30;;;;;;;22.27;20.27;;;14.00;32.90;;;;;;5027306;28;20467;-81
2022/03/06 12:45:02;;;;;;;18.83;16.93;;;12.60;32.20;;;;;;5004608;28;20883;-81
2022/03/06 12:47:29;;;;;;;17.93;16.30;;;12.40;33.10;;;;;;5018414;28;20429;-81
2022/03/06 12:49:56;;;;;;;17.07;15.47;;;12.30;33.20;;;;;;5003742;28;20443;-82
2022/03/06 12:52:23;;;;;;;15.53;14.13;;;12.40;32.40;;;;;;5018994;28;20478;-82
2022/03/06 12:54:50;;;;;;;17.07;15.47;;;12.80;32.80;;;;;;5025054;28;20496;-81
2022/03/06 12:57:17;;;;;;;17.33;15.63;;;12.30;32.60;;;;;;5026530;28;20419;-81
2022/03/06 12:59:43;;;;;;;18.03;16.23;;;12.60;32.90;;;;;;5026023;28;20929;-83
2022/03/06 13:02:10;;;;;;;17.43;15.93;;;12.40;32.00;;;;;;5010000;28;20937;-83
2022/03/06 13:04:37;;;;;;;16.67;15.17;;;12.80;31.90;;;;;;5008352;28;20435;-80
2022/03/06 13:07:05;;;;;;;16.10;14.90;;;12.90;31.60;;;;;;5028655;28;20821;-83
2022/03/06 13:09:34;;;;;;;17.33;15.93;;;12.90;31.60;;;;;;5008566;28;20526;-79
2022/03/06 13:12:02;;;;;;;17.10;15.57;;;13.60;31.90;;;;;;5026752;28;20470;-81
2022/03/06 13:14:46;;;;;;;16.40;14.80;;;14.00;30.80;;;;;;5008531;28;20445;-83
2022/03/06 13:17:12;;;;;;;15.83;14.43;;;14.90;31.00;;;;;;5007469;28;20450;-82
2022/03/06 13:19:42;;;;;;;16.90;15.20;;;16.50;31.40;;;;;;5026233;28;20431;-82
2022/03/06 13:22:13;;;;;;;16.80;15.30;;;15.60;30.40;;;;;;5023743;28;20421;-81